UTTT/TAS METAR and TAF weather

Enter ICAO airport designator
Station Type Date Time Source
UTTT METAR 2020/04/06 17:30 UTC NOAA

UTTT 061730Z VRB02KT 4000 BR FU NSC 15/10 Q1016 R08L/CLRD70 NOSIG


Station Type Date Time Source
UTTT Decoded METAR 2020/04/06 17:30 UTC NOAA

Tashkent, Uzbekistan (UTTT) 41-16N 069-16E 488M
Apr 06, 2020 - 01:30 PM EDT / 2020.04.06 1730 UTC
Wind: Variable at 2 MPH (2 KT):0
Visibility: 2 mile(s):0
Weather: mist; smoke
Temperature: 59 F (15 C)
Dew Point: 50 F (10 C)
Relative Humidity: 72%
Pressure (altimeter): 30.00 in. Hg (1016 hPa)
ob: UTTT 061730Z VRB02KT 4000 BR FU NSC 15/10 Q1016 R08L/CLRD70 NOSIG
cycle: 17

Station Type Date Time Source
UTTT TAF 2020/04/06 18:09 UTC NOAA

TAF UTTT 061700Z 0618/0718 24010KT 7000 SCT050CB BKN100
TEMPO 0618/0622 3000 BR
TEMPO 0622/0704 VRB02KT 1500 -SHRA BR SCT005 BKN040CB

Example: see airport list